createdAt,value
2023-09-05T00:00:43.819Z,85.39
2023-09-05T00:01:43.833Z,85.30
2023-09-05T00:02:43.840Z,85.19
2023-09-05T00:03:43.825Z,85.70
2023-09-05T00:04:43.774Z,85.60
2023-09-05T00:05:43.789Z,85.39
2023-09-05T00:06:43.763Z,85.39
2023-09-05T00:07:43.746Z,85.50
2023-09-05T00:08:43.728Z,85.60
2023-09-05T00:09:43.709Z,85.39
2023-09-05T00:10:43.687Z,85.50
2023-09-05T00:11:43.669Z,85.60
2023-09-05T00:12:43.688Z,85.60
2023-09-05T00:13:43.673Z,85.30
2023-09-05T00:14:43.644Z,85.64
2023-09-05T00:15:43.621Z,85.84
2023-09-05T00:16:43.720Z,85.70
2023-09-05T00:17:43.652Z,85.74
2023-09-05T00:18:43.578Z,85.84
2023-09-05T00:19:43.573Z,85.84
2023-09-05T00:20:43.597Z,85.84
2023-09-05T00:21:43.539Z,85.84
2023-09-05T00:22:43.550Z,85.54
2023-09-05T00:23:43.530Z,85.64
2023-09-05T00:24:43.522Z,85.84
2023-09-05T00:25:43.479Z,85.94
2023-09-05T00:26:43.505Z,85.84
2023-09-05T00:27:43.501Z,86.05
2023-09-05T00:28:43.460Z,85.94
2023-09-05T00:29:43.432Z,85.94
2023-09-05T00:30:43.445Z,85.94
2023-09-05T00:31:43.469Z,85.94
2023-09-05T00:32:43.469Z,85.74
2023-09-05T00:33:43.413Z,85.64
2023-09-05T00:34:43.374Z,85.74
2023-09-05T00:35:43.348Z,85.94
2023-09-05T00:36:43.516Z,85.94
2023-09-05T00:37:43.412Z,85.94
2023-09-05T00:38:43.319Z,85.84
2023-09-05T00:39:43.300Z,85.94
2023-09-05T00:40:43.296Z,85.88
2023-09-05T00:41:43.279Z,86.08
2023-09-05T00:42:43.265Z,86.29
2023-09-05T00:43:43.237Z,86.19
2023-09-05T00:44:43.250Z,86.39
2023-09-05T00:45:43.254Z,86.39
2023-09-05T00:46:43.224Z,86.59
2023-09-05T00:47:43.221Z,86.39
2023-09-05T00:48:43.171Z,85.88
2023-09-05T00:49:43.159Z,86.08
2023-09-05T00:50:43.154Z,86.49
2023-09-05T00:51:43.152Z,86.59
2023-09-05T00:52:43.126Z,86.79
2023-09-05T00:53:43.105Z,86.69
2023-09-05T00:54:43.108Z,86.59
2023-09-05T00:55:43.081Z,86.90
2023-09-05T00:56:43.096Z,86.90
2023-09-05T00:57:43.049Z,86.90
2023-09-05T00:58:43.046Z,86.90
2023-09-05T00:59:43.022Z,86.90
2023-09-05T01:00:43.016Z,86.79
2023-09-05T01:01:43.063Z,86.90
2023-09-05T01:02:43.160Z,87.00
2023-09-05T01:03:42.971Z,86.90
2023-09-05T01:04:43.017Z,87.00
2023-09-05T01:05:43.022Z,86.90
2023-09-05T01:06:42.949Z,86.90
2023-09-05T01:07:42.919Z,87.04
2023-09-05T01:08:42.904Z,87.04
2023-09-05T01:09:42.898Z,87.04
2023-09-05T01:10:42.906Z,86.94
2023-09-05T01:11:42.859Z,86.94
2023-09-05T01:12:42.857Z,87.14
2023-09-05T01:13:42.874Z,87.14
2023-09-05T01:14:42.823Z,87.14
2023-09-05T01:15:42.852Z,87.04
2023-09-05T01:16:42.801Z,87.24
2023-09-05T01:17:42.802Z,87.14
2023-09-05T01:18:42.776Z,87.14
2023-09-05T01:19:42.771Z,87.24
2023-09-05T01:20:42.770Z,87.34
2023-09-05T01:21:42.715Z,87.45
2023-09-05T01:22:42.779Z,87.65
2023-09-05T01:23:42.695Z,87.14
2023-09-05T01:24:42.701Z,87.08
2023-09-05T01:25:42.671Z,86.98
2023-09-05T01:26:42.697Z,87.59
2023-09-05T01:27:42.641Z,87.79
2023-09-05T01:28:42.653Z,87.79
2023-09-05T01:29:42.634Z,87.99
2023-09-05T01:30:42.594Z,87.79
2023-09-05T01:31:42.584Z,87.89
2023-09-05T01:32:42.589Z,87.89
2023-09-05T01:33:42.562Z,87.99
2023-09-05T01:34:42.554Z,88.09
2023-09-05T01:35:42.535Z,88.09
2023-09-05T01:36:42.512Z,88.29
2023-09-05T01:37:42.504Z,88.09
2023-09-05T01:38:42.491Z,88.20
2023-09-05T01:39:42.473Z,88.20
2023-09-05T01:40:42.454Z,88.20
2023-09-05T01:41:42.447Z,88.09
2023-09-05T01:42:42.436Z,87.99
2023-09-05T01:43:42.440Z,87.99
2023-09-05T01:44:42.414Z,88.20
2023-09-05T01:45:42.417Z,87.99
2023-09-05T01:46:42.423Z,87.89
2023-09-05T01:47:42.408Z,87.79
2023-09-05T01:48:42.403Z,87.89
2023-09-05T01:49:42.361Z,87.89
2023-09-05T01:50:42.344Z,88.09
2023-09-05T01:51:42.331Z,88.20
2023-09-05T01:52:42.338Z,88.20
2023-09-05T01:53:42.313Z,88.09
2023-09-05T01:54:42.314Z,88.20
2023-09-05T01:55:42.277Z,88.20
2023-09-05T01:56:42.257Z,88.20
2023-09-05T01:57:42.260Z,87.93
2023-09-05T01:58:42.243Z,88.03
2023-09-05T01:59:42.217Z,88.13
2023-09-05T02:00:42.244Z,87.93
2023-09-05T02:01:42.313Z,87.93
2023-09-05T02:02:42.179Z,87.83
2023-09-05T02:03:42.168Z,87.63
2023-09-05T02:04:42.159Z,87.73
2023-09-05T02:05:42.166Z,87.77
2023-09-05T02:06:42.130Z,88.07
2023-09-05T02:07:42.127Z,88.48
2023-09-05T02:08:42.100Z,88.38
2023-09-05T02:09:42.103Z,88.18
2023-09-05T02:10:42.088Z,88.28
2023-09-05T02:11:42.065Z,88.48
2023-09-05T02:12:42.049Z,88.58
2023-09-05T02:13:42.036Z,88.58
2023-09-05T02:14:42.038Z,88.48
2023-09-05T02:15:42.031Z,88.58
2023-09-05T02:16:42.077Z,88.58
2023-09-05T02:17:41.992Z,88.68
2023-09-05T02:18:41.962Z,88.78
2023-09-05T02:19:41.968Z,88.68
2023-09-05T02:20:41.971Z,88.78
2023-09-05T02:21:41.989Z,88.78
2023-09-05T02:22:41.912Z,88.58
2023-09-05T02:23:41.901Z,88.48
2023-09-05T02:24:41.907Z,88.58
2023-09-05T02:25:41.876Z,88.68
2023-09-05T02:26:41.863Z,88.78
2023-09-05T02:27:41.843Z,88.48
2023-09-05T02:28:41.864Z,88.38
2023-09-05T02:29:41.855Z,88.58
2023-09-05T02:30:41.891Z,88.58
2023-09-05T02:31:41.792Z,88.58
2023-09-05T02:32:41.825Z,88.28
2023-09-05T02:33:41.783Z,87.97
2023-09-05T02:34:41.752Z,88.38
2023-09-05T02:35:41.743Z,88.78
2023-09-05T02:36:41.727Z,88.48
2023-09-05T02:37:41.716Z,88.38
2023-09-05T02:38:41.713Z,88.48
2023-09-05T02:39:41.682Z,88.28
2023-09-05T02:40:41.676Z,88.07
2023-09-05T02:41:41.681Z,88.21
2023-09-05T02:42:41.660Z,88.52
2023-09-05T02:43:41.664Z,88.62
2023-09-05T02:44:41.628Z,88.93
2023-09-05T02:45:41.614Z,89.29
2023-09-05T02:46:41.593Z,89.09
2023-09-05T02:47:41.671Z,88.99
2023-09-05T02:48:41.575Z,88.89
2023-09-05T02:49:41.549Z,88.78
2023-09-05T02:50:41.542Z,88.48
2023-09-05T02:51:41.515Z,88.48
2023-09-05T02:52:47.476Z,88.48
2023-09-05T02:53:42.485Z,88.28
2023-09-05T02:54:41.483Z,88.48
2023-09-05T02:55:41.460Z,88.78
2023-09-05T02:56:41.449Z,88.89
2023-09-05T02:57:41.455Z,88.73
2023-09-05T02:58:41.439Z,88.82
2023-09-05T02:59:41.425Z,88.93
2023-09-05T03:00:41.404Z,88.93
2023-09-05T03:01:41.435Z,89.13
2023-09-05T03:02:41.656Z,88.93
2023-09-05T03:03:41.404Z,89.03
2023-09-05T03:04:41.349Z,88.93
2023-09-05T03:05:41.330Z,89.13
2023-09-05T03:06:41.345Z,89.03
2023-09-05T03:07:41.334Z,88.82
2023-09-05T03:08:41.291Z,88.93
2023-09-05T03:09:41.274Z,88.73
2023-09-05T03:10:41.270Z,88.52
2023-09-05T03:11:41.270Z,88.82
2023-09-05T03:12:41.240Z,89.13
2023-09-05T03:13:41.255Z,88.82
2023-09-05T03:15:38.859Z,88.97
2023-09-05T03:16:38.862Z,89.17
2023-09-05T03:17:39.119Z,89.48
2023-09-05T03:18:38.800Z,89.58
2023-09-05T03:19:38.787Z,89.68
2023-09-05T03:20:38.848Z,89.68
2023-09-05T03:21:38.787Z,89.58
2023-09-05T03:22:38.758Z,89.68
2023-09-05T03:23:38.739Z,89.58
2023-09-05T03:24:38.730Z,89.58
2023-09-05T03:25:38.718Z,89.48
2023-09-05T03:26:38.720Z,89.07
2023-09-05T03:27:38.691Z,88.87
2023-09-05T03:28:38.682Z,89.07
2023-09-05T03:29:38.660Z,89.37
2023-09-05T03:30:38.668Z,89.58
2023-09-05T03:31:38.668Z,89.58
2023-09-05T03:32:38.629Z,89.48
2023-09-05T03:33:38.635Z,89.37
2023-09-05T03:34:38.605Z,89.37
2023-09-05T03:35:38.620Z,89.37
2023-09-05T03:36:38.570Z,89.78
2023-09-05T03:37:38.555Z,89.48
2023-09-05T03:38:38.562Z,89.58
2023-09-05T03:39:38.546Z,89.83
2023-09-05T03:40:38.543Z,89.98
2023-09-05T03:41:38.513Z,90.19
2023-09-05T03:42:38.488Z,89.98
2023-09-05T03:43:38.475Z,89.58
2023-09-05T03:44:38.483Z,89.48
2023-09-05T03:45:38.508Z,89.68
2023-09-05T03:46:38.442Z,89.78
2023-09-05T03:47:50.463Z,89.37
2023-09-05T03:48:39.477Z,89.31
2023-09-05T03:49:38.444Z,89.52
2023-09-05T03:50:38.392Z,89.88
2023-09-05T03:51:38.372Z,89.98
2023-09-05T03:52:38.357Z,89.58
2023-09-05T03:53:38.672Z,89.52
2023-09-05T03:54:38.352Z,89.58
2023-09-05T03:55:38.315Z,89.68
2023-09-05T03:56:38.321Z,89.58
2023-09-05T03:57:38.285Z,89.58
2023-09-05T03:58:38.299Z,89.48
2023-09-05T03:59:38.262Z,89.37
2023-09-05T04:00:38.259Z,89.48
2023-09-05T04:01:38.260Z,89.37
2023-09-05T04:02:38.285Z,89.28
2023-09-05T04:03:38.341Z,89.48
2023-09-05T04:04:38.194Z,89.88
2023-09-05T04:05:38.187Z,89.68
2023-09-05T04:06:38.168Z,89.48
2023-09-05T04:07:39.480Z,89.58
2023-09-05T04:08:38.156Z,89.68
2023-09-05T04:09:38.126Z,89.37
2023-09-05T04:10:38.163Z,89.48
2023-09-05T04:11:38.106Z,89.68
2023-09-05T04:12:38.116Z,89.78
2023-09-05T04:13:38.090Z,89.37
2023-09-05T04:14:38.064Z,89.62
2023-09-05T04:15:38.079Z,89.83
2023-09-05T04:16:38.057Z,90.03
2023-09-05T04:17:38.064Z,90.09
2023-09-05T04:18:38.030Z,90.19
2023-09-05T04:19:37.995Z,89.88
2023-09-05T04:20:38.051Z,89.48
2023-09-05T04:21:37.993Z,89.48
2023-09-05T04:22:37.986Z,89.48
2023-09-05T04:23:37.935Z,89.48
2023-09-05T04:24:37.922Z,89.58
2023-09-05T04:25:37.919Z,89.68
2023-09-05T04:26:37.925Z,89.88
2023-09-05T04:27:37.887Z,89.88
2023-09-05T04:28:37.896Z,89.48
2023-09-05T04:29:37.868Z,89.42
2023-09-05T04:30:37.861Z,89.42
2023-09-05T04:31:37.899Z,89.68
2023-09-05T04:32:37.841Z,89.88
2023-09-05T04:33:37.856Z,89.98
2023-09-05T04:34:37.805Z,89.52
2023-09-05T04:35:37.803Z,89.52
2023-09-05T04:36:37.789Z,89.72
2023-09-05T04:37:37.754Z,89.83
2023-09-05T04:38:37.752Z,89.92
2023-09-05T04:39:37.725Z,89.92
2023-09-05T04:40:37.741Z,89.83
2023-09-05T04:41:37.707Z,89.92
2023-09-05T04:42:37.692Z,90.23
2023-09-05T04:43:37.675Z,90.23
2023-09-05T04:44:37.680Z,89.88
2023-09-05T04:45:37.651Z,89.78
2023-09-05T04:46:37.682Z,89.88
2023-09-05T04:47:37.630Z,89.88
2023-09-05T04:48:37.624Z,89.68
2023-09-05T04:49:37.599Z,89.78
2023-09-05T04:50:37.599Z,89.68
2023-09-05T04:51:37.567Z,89.28
2023-09-05T04:52:37.561Z,89.17
2023-09-05T04:53:37.535Z,89.43
2023-09-05T04:54:37.539Z,89.43
2023-09-05T04:55:37.516Z,89.23
2023-09-05T04:56:37.513Z,89.13
2023-09-05T04:57:37.497Z,89.03
2023-09-05T04:58:37.478Z,88.93
2023-09-05T04:59:37.468Z,88.82
2023-09-05T05:00:37.467Z,88.93
2023-09-05T05:01:37.451Z,88.93
2023-09-05T05:02:37.521Z,89.13
2023-09-05T05:03:37.469Z,88.93
2023-09-05T05:04:37.421Z,88.93
2023-09-05T05:05:37.382Z,89.03
2023-09-05T05:06:37.388Z,89.03
2023-09-05T05:07:37.351Z,89.03
2023-09-05T05:08:37.354Z,89.13
2023-09-05T05:09:37.346Z,89.13
2023-09-05T05:10:37.317Z,89.13
2023-09-05T05:11:37.292Z,89.23
2023-09-05T05:12:37.307Z,89.03
2023-09-05T05:13:37.282Z,88.93
2023-09-05T05:14:37.283Z,88.89
2023-09-05T05:15:37.256Z,88.89
2023-09-05T05:16:37.253Z,88.89
2023-09-05T05:17:37.250Z,88.89
2023-09-05T05:18:37.222Z,88.89
2023-09-05T05:19:37.218Z,89.09
2023-09-05T05:20:37.188Z,89.09
2023-09-05T05:21:37.168Z,88.89
2023-09-05T05:22:37.162Z,88.78
2023-09-05T05:23:37.150Z,88.89
2023-09-05T05:24:37.159Z,89.09
2023-09-05T05:25:37.107Z,89.15
2023-09-05T05:26:37.107Z,89.25
2023-09-05T05:27:37.083Z,89.25
2023-09-05T05:28:37.094Z,88.84
2023-09-05T05:29:37.071Z,88.54
2023-09-05T05:30:37.050Z,88.54
2023-09-05T05:31:37.050Z,88.75
2023-09-05T05:32:37.080Z,89.15
2023-09-05T05:33:37.025Z,89.35
2023-09-05T05:34:37.057Z,89.25
2023-09-05T05:35:36.985Z,89.04
2023-09-05T05:36:36.972Z,89.04
2023-09-05T05:37:36.975Z,88.95
2023-09-05T05:38:36.954Z,88.90
2023-09-05T05:39:36.923Z,89.01
2023-09-05T05:40:36.925Z,88.90
2023-09-05T05:41:36.922Z,88.80
2023-09-05T05:42:36.930Z,88.90
2023-09-05T05:43:36.873Z,88.70
2023-09-05T05:44:36.862Z,88.70
2023-09-05T05:45:36.844Z,88.70
2023-09-05T05:46:36.900Z,88.70
2023-09-05T05:47:36.832Z,88.96
2023-09-05T05:48:36.811Z,89.06
2023-09-05T05:49:36.799Z,89.06
2023-09-05T05:50:36.791Z,88.46
2023-09-05T05:51:36.791Z,88.35
2023-09-05T05:52:36.787Z,88.66
2023-09-05T05:53:36.764Z,88.86
2023-09-05T05:54:36.734Z,88.76
2023-09-05T05:55:36.709Z,88.66
2023-09-05T05:56:36.728Z,88.51
2023-09-05T05:57:36.684Z,88.21
2023-09-05T05:58:36.675Z,88.21
2023-09-05T05:59:36.658Z,88.11
2023-09-05T06:00:36.681Z,88.21
2023-09-05T06:01:36.674Z,88.31
2023-09-05T06:02:36.652Z,88.31
2023-09-05T06:03:36.727Z,88.31
2023-09-05T06:04:36.709Z,88.11
2023-09-05T06:05:36.594Z,87.77
2023-09-05T06:06:36.585Z,87.66
2023-09-05T06:07:36.553Z,87.56
2023-09-05T06:08:36.565Z,87.56
2023-09-05T06:09:36.522Z,87.56
2023-09-05T06:10:36.533Z,87.56
2023-09-05T06:11:36.509Z,87.46
2023-09-05T06:12:36.485Z,87.05
2023-09-05T06:13:36.498Z,86.71
2023-09-05T06:14:36.472Z,86.82
2023-09-05T06:15:36.458Z,87.02
2023-09-05T06:16:36.496Z,86.91
2023-09-05T06:17:36.444Z,86.71
2023-09-05T06:18:36.413Z,86.57
2023-09-05T06:19:36.418Z,86.37
2023-09-05T06:20:36.396Z,86.27
2023-09-05T06:21:36.369Z,86.07
2023-09-05T06:22:36.357Z,85.66
2023-09-05T06:23:36.391Z,85.46
2023-09-05T06:24:36.356Z,85.22
2023-09-05T06:25:36.321Z,85.02
2023-09-05T06:26:36.304Z,84.00
2023-09-05T06:27:36.286Z,83.70
2023-09-05T06:28:36.283Z,83.80
2023-09-05T06:29:36.284Z,83.56
2023-09-05T06:30:36.259Z,83.36
2023-09-05T06:31:36.298Z,83.36
2023-09-05T06:32:36.224Z,83.36
2023-09-05T06:33:36.226Z,83.26
2023-09-05T06:34:36.217Z,83.46
2023-09-05T06:35:36.187Z,83.72
2023-09-05T06:36:37.354Z,83.92
2023-09-05T06:37:36.162Z,83.22
2023-09-05T06:38:36.195Z,82.41
2023-09-05T06:39:36.138Z,82.21
2023-09-05T06:40:36.146Z,82.10
2023-09-05T06:41:36.129Z,82.21
2023-09-05T06:42:36.087Z,82.31
2023-09-05T06:43:36.121Z,82.37
2023-09-05T06:44:36.069Z,82.27
2023-09-05T06:45:36.055Z,81.96
2023-09-05T06:46:36.039Z,81.87
2023-09-05T06:47:36.070Z,81.36
2023-09-05T06:48:36.024Z,81.16
2023-09-05T06:49:36.002Z,81.26
2023-09-05T06:50:35.995Z,81.36
2023-09-05T06:51:35.981Z,81.02
2023-09-05T06:52:35.985Z,80.62
2023-09-05T06:53:35.951Z,80.41
2023-09-05T06:54:35.926Z,80.82
2023-09-05T06:55:36.105Z,80.72
2023-09-05T06:56:35.908Z,80.31
2023-09-05T06:57:35.906Z,80.38
2023-09-05T06:58:35.874Z,80.27
2023-09-05T06:59:35.871Z,79.97
2023-09-05T07:00:35.853Z,79.87
2023-09-05T07:01:35.886Z,79.47
2023-09-05T07:02:35.847Z,79.57
2023-09-05T07:03:35.811Z,79.67
2023-09-05T07:04:35.821Z,79.73
2023-09-05T07:05:35.788Z,79.63
2023-09-05T07:06:35.781Z,79.53
2023-09-05T07:07:35.754Z,78.72
2023-09-05T07:08:35.742Z,78.52
2023-09-05T07:09:35.729Z,77.82
2023-09-05T07:10:35.716Z,77.28
2023-09-05T07:11:35.709Z,77.28
2023-09-05T07:12:35.690Z,77.17
2023-09-05T07:13:35.674Z,77.38
2023-09-05T07:14:35.663Z,77.38
2023-09-05T07:15:35.668Z,76.64
2023-09-05T07:16:35.658Z,76.43
2023-09-05T07:17:35.721Z,76.03
2023-09-05T07:18:35.597Z,76.43
2023-09-05T07:19:35.594Z,76.23
2023-09-05T07:20:35.594Z,76.03
2023-09-05T07:21:35.578Z,75.63
2023-09-05T07:22:35.556Z,76.60
2023-09-05T07:23:35.564Z,76.40
2023-09-05T07:24:35.521Z,76.20
2023-09-05T07:25:35.553Z,75.90
2023-09-05T07:26:35.505Z,75.90
2023-09-05T07:27:35.503Z,75.99
2023-09-05T07:28:35.486Z,75.49
2023-09-05T07:29:35.493Z,75.59
2023-09-05T07:30:35.521Z,75.26
2023-09-05T07:31:35.515Z,75.26
2023-09-05T07:32:35.454Z,75.26
2023-09-05T07:33:35.416Z,75.56
2023-09-05T07:34:35.432Z,75.66
2023-09-05T07:35:35.402Z,75.86
2023-09-05T07:36:35.372Z,75.86
2023-09-05T07:37:35.366Z,75.15
2023-09-05T07:38:35.348Z,75.76
2023-09-05T07:39:35.356Z,74.75
2023-09-05T07:40:35.324Z,75.22
2023-09-05T07:41:35.322Z,75.52
2023-09-05T07:42:35.296Z,75.72
2023-09-05T07:43:35.289Z,75.02
2023-09-05T07:44:35.294Z,75.12
2023-09-05T07:45:35.277Z,74.62
2023-09-05T07:46:35.261Z,73.98
2023-09-05T07:47:35.297Z,74.38
2023-09-05T07:48:35.221Z,74.28
2023-09-05T07:49:35.225Z,74.48
2023-09-05T07:50:35.193Z,74.28
2023-09-05T07:51:35.197Z,74.88
2023-09-05T07:52:35.169Z,74.88
2023-09-05T07:53:35.165Z,74.18
2023-09-05T07:54:35.195Z,73.98
2023-09-05T07:55:35.131Z,73.88
2023-09-05T07:56:35.116Z,73.04
2023-09-05T07:57:35.099Z,72.84
2023-09-05T07:58:35.108Z,73.44
2023-09-05T07:59:35.076Z,73.94
2023-09-05T08:00:35.073Z,73.94
2023-09-05T08:01:35.092Z,73.44
2023-09-05T08:02:35.062Z,72.90
2023-09-05T08:03:35.106Z,72.80
2023-09-05T08:04:35.011Z,73.61
2023-09-05T08:05:35.002Z,73.21
2023-09-05T08:06:34.988Z,73.10
2023-09-05T08:07:34.978Z,73.81
2023-09-05T08:08:34.979Z,73.21
2023-09-05T08:09:34.952Z,74.07
2023-09-05T08:10:34.927Z,72.56
2023-09-05T08:11:34.921Z,72.56
2023-09-05T08:12:34.923Z,72.56
2023-09-05T08:13:34.915Z,72.56
2023-09-05T08:14:34.870Z,72.77
2023-09-05T08:15:34.886Z,73.17
2023-09-05T08:16:34.853Z,72.97
2023-09-05T08:17:34.857Z,71.43
2023-09-05T08:18:34.889Z,71.03
2023-09-05T08:19:34.823Z,71.03
2023-09-05T08:20:34.801Z,71.83
2023-09-05T08:21:34.791Z,71.73
2023-09-05T08:22:34.785Z,72.43
2023-09-05T08:23:34.763Z,71.59
2023-09-05T08:24:34.759Z,71.20
2023-09-05T08:25:34.758Z,71.09
2023-09-05T08:26:34.736Z,71.70
2023-09-05T08:27:34.745Z,72.20
2023-09-05T08:28:34.712Z,72.20
2023-09-05T08:29:34.688Z,71.70
2023-09-05T08:30:34.675Z,72.00
2023-09-05T08:31:34.707Z,73.60
2023-09-05T08:32:34.768Z,71.59
2023-09-05T08:33:34.678Z,70.79
2023-09-05T08:34:34.623Z,71.09
2023-09-05T08:35:34.610Z,71.70
2023-09-05T08:36:34.605Z,71.20
2023-09-05T08:37:34.579Z,71.16
2023-09-05T08:38:34.572Z,72.06
2023-09-05T08:39:34.559Z,72.97
2023-09-05T08:40:34.550Z,72.36
2023-09-05T08:41:34.556Z,71.96
2023-09-05T08:42:34.505Z,71.86
2023-09-05T08:43:34.501Z,72.66
2023-09-05T08:44:34.486Z,71.36
2023-09-05T08:45:34.494Z,71.43
2023-09-05T08:46:34.553Z,71.63
2023-09-05T08:47:34.488Z,71.23
2023-09-05T08:48:51.915Z,71.03
2023-09-05T08:49:35.420Z,71.43
2023-09-05T08:50:34.427Z,70.59
2023-09-05T08:51:34.405Z,69.89
2023-09-05T08:52:34.387Z,69.29
2023-09-05T08:53:34.372Z,68.99
2023-09-05T08:54:34.396Z,69.49
2023-09-05T08:55:34.358Z,69.59
2023-09-05T08:56:34.325Z,69.59
2023-09-05T08:57:34.317Z,70.66
2023-09-05T08:58:34.313Z,70.26
2023-09-05T08:59:34.316Z,70.26
2023-09-05T09:00:34.325Z,69.66
2023-09-05T09:01:35.255Z,68.76
2023-09-05T09:02:34.343Z,68.66
2023-09-05T09:03:34.266Z,68.86
2023-09-05T09:04:34.240Z,69.06
2023-09-05T09:05:34.213Z,68.96
2023-09-05T09:06:34.192Z,69.16
2023-09-05T09:07:34.198Z,69.26
2023-09-05T09:08:34.183Z,69.46
2023-09-05T09:09:34.164Z,69.26
2023-09-05T09:10:34.139Z,68.23
2023-09-05T09:11:34.132Z,67.52
2023-09-05T09:12:34.109Z,66.93
2023-09-05T09:13:34.111Z,67.13
2023-09-05T09:14:34.113Z,66.82
2023-09-05T09:15:34.079Z,67.19
2023-09-05T09:16:34.119Z,67.59
2023-09-05T09:17:34.069Z,68.49
2023-09-05T09:18:34.060Z,67.69
2023-09-05T09:19:34.109Z,67.29
2023-09-05T09:20:34.011Z,67.40
2023-09-05T09:21:34.226Z,67.40
2023-09-05T09:22:33.997Z,68.19
2023-09-05T09:23:33.981Z,68.19
2023-09-05T09:24:33.959Z,68.09
2023-09-05T09:25:33.937Z,69.09
2023-09-05T09:26:33.934Z,68.79
2023-09-05T09:27:33.929Z,68.26
2023-09-05T09:28:33.910Z,67.36
2023-09-05T09:29:33.889Z,67.06
2023-09-05T09:30:33.893Z,67.46
2023-09-05T09:31:33.858Z,67.36
2023-09-05T09:32:33.870Z,67.26
2023-09-05T09:33:33.926Z,67.16
2023-09-05T09:34:33.827Z,68.06
2023-09-05T09:35:33.801Z,66.46
2023-09-05T09:36:33.793Z,66.43
2023-09-05T09:37:33.805Z,66.53
2023-09-05T09:38:33.774Z,66.23
2023-09-05T09:39:33.957Z,65.73
2023-09-05T09:40:33.723Z,66.93
2023-09-05T09:41:33.741Z,66.80
2023-09-05T09:42:33.713Z,66.20
2023-09-05T09:43:33.699Z,65.90
2023-09-05T09:44:33.714Z,66.00
2023-09-05T09:45:33.678Z,65.30
2023-09-05T09:46:33.678Z,64.47
2023-09-05T09:47:33.716Z,64.87
2023-09-05T09:48:33.640Z,64.47
2023-09-05T09:49:33.627Z,65.47
2023-09-05T09:50:33.600Z,65.67
2023-09-05T09:51:33.615Z,65.67
2023-09-05T09:52:33.567Z,65.56
2023-09-05T09:53:33.565Z,64.37
2023-09-05T09:54:33.690Z,66.27
2023-09-05T09:55:33.547Z,64.57
2023-09-05T09:56:33.544Z,63.67
2023-09-05T09:57:41.888Z,64.17
2023-09-05T09:58:34.498Z,65.83
2023-09-05T09:59:33.484Z,64.44
2023-09-05T10:00:33.497Z,65.04
2023-09-05T10:01:33.535Z,65.44
2023-09-05T10:02:33.470Z,64.54
2023-09-05T10:03:33.557Z,63.94
2023-09-05T10:04:33.414Z,63.94
2023-09-05T10:05:33.417Z,64.01
2023-09-05T10:06:33.383Z,64.21
2023-09-05T10:07:33.399Z,64.61
2023-09-05T10:08:33.373Z,62.51
2023-09-05T10:09:33.358Z,63.31
2023-09-05T10:10:33.355Z,63.21
2023-09-05T10:11:33.329Z,62.51
2023-09-05T10:12:33.305Z,63.21
2023-09-05T10:13:33.317Z,62.51
2023-09-05T10:14:33.275Z,64.21
2023-09-05T10:15:33.288Z,63.71
2023-09-05T10:16:33.326Z,62.81
2023-09-05T10:17:33.279Z,63.88
2023-09-05T10:18:33.244Z,64.07
2023-09-05T10:19:33.237Z,62.98
2023-09-05T10:20:33.209Z,64.07
2023-09-05T10:21:33.197Z,62.59
2023-09-05T10:22:33.180Z,63.28
2023-09-05T10:23:33.168Z,62.65
2023-09-05T10:24:33.167Z,61.66
2023-09-05T10:25:33.149Z,63.15
2023-09-05T10:26:33.247Z,62.95
2023-09-05T10:27:33.138Z,63.15
2023-09-05T10:28:33.116Z,63.35
2023-09-05T10:29:33.096Z,63.25
2023-09-05T10:30:33.076Z,61.55
2023-09-05T10:31:33.088Z,62.13
2023-09-05T10:32:33.049Z,61.72
2023-09-05T10:33:33.027Z,62.02
2023-09-05T10:34:33.034Z,63.12
2023-09-05T10:35:33.023Z,61.63
2023-09-05T10:36:32.979Z,60.93
2023-09-05T10:37:32.978Z,61.20
2023-09-05T10:38:33.009Z,60.70
2023-09-05T10:39:32.959Z,59.91
2023-09-05T10:40:32.942Z,59.01
2023-09-05T10:41:32.929Z,59.31
2023-09-05T10:42:32.901Z,61.40
2023-09-05T10:43:32.928Z,62.59
2023-09-05T10:44:32.897Z,61.90
2023-09-05T10:45:32.866Z,62.29
2023-09-05T10:46:32.859Z,61.30
2023-09-05T10:47:32.859Z,58.09
2023-09-05T10:48:32.853Z,61.57
2023-09-05T10:49:32.817Z,60.87
2023-09-05T10:50:32.821Z,60.08
2023-09-05T10:51:32.790Z,61.37
2023-09-05T10:52:32.794Z,60.68
2023-09-05T10:53:32.771Z,62.56
2023-09-05T10:54:32.765Z,60.77
2023-09-05T10:55:32.731Z,60.57
2023-09-05T10:56:32.732Z,61.07
2023-09-05T10:57:32.802Z,59.98
2023-09-05T10:58:32.733Z,59.28
2023-09-05T10:59:32.687Z,59.48
2023-09-05T11:00:32.674Z,60.38
2023-09-05T11:01:32.727Z,61.34
2023-09-05T11:02:32.668Z,60.64
2023-09-05T11:03:32.645Z,58.86
2023-09-05T11:04:32.652Z,59.95
2023-09-05T11:05:32.594Z,60.14
2023-09-05T11:06:32.629Z,60.84
2023-09-05T11:07:32.607Z,60.64
2023-09-05T11:08:32.598Z,61.24
2023-09-05T11:09:32.551Z,60.64
2023-09-05T11:10:32.544Z,59.05
2023-09-05T11:11:32.560Z,59.05
2023-09-05T11:12:32.516Z,59.22
2023-09-05T11:13:32.505Z,58.33
2023-09-05T11:14:32.495Z,60.42
2023-09-05T11:15:32.553Z,60.61
2023-09-05T11:16:32.591Z,59.42
2023-09-05T11:17:32.464Z,58.33
2023-09-05T11:18:32.443Z,58.33
2023-09-05T11:19:32.420Z,59.39
2023-09-05T11:20:32.413Z,60.58
2023-09-05T11:21:32.405Z,57.90
2023-09-05T11:22:32.382Z,58.20
2023-09-05T11:23:32.372Z,57.81
2023-09-05T11:24:32.365Z,58.00
2023-09-05T11:25:32.347Z,59.59
2023-09-05T11:26:32.353Z,57.21
2023-09-05T11:27:32.322Z,57.81
2023-09-05T11:28:33.561Z,57.60
2023-09-05T11:29:32.290Z,58.70
2023-09-05T11:30:32.292Z,57.60
2023-09-05T11:31:32.368Z,57.41
2023-09-05T11:32:32.264Z,58.50
2023-09-05T11:33:32.245Z,57.81
2023-09-05T11:34:32.226Z,58.10
2023-09-05T11:35:32.254Z,57.60
2023-09-05T11:36:32.210Z,56.81
2023-09-05T11:37:32.199Z,57.01
2023-09-05T11:38:32.185Z,55.72
2023-09-05T11:39:32.219Z,56.38
2023-09-05T11:40:32.171Z,57.31
2023-09-05T11:41:32.159Z,57.87
2023-09-05T11:42:32.288Z,58.17
2023-09-05T11:43:32.121Z,57.78
2023-09-05T11:44:32.139Z,57.28
2023-09-05T11:45:32.086Z,56.98
2023-09-05T11:46:32.103Z,56.49
2023-09-05T11:47:32.064Z,58.27
2023-09-05T11:48:32.107Z,58.17
2023-09-05T11:49:32.049Z,57.87
2023-09-05T11:50:32.023Z,57.65
2023-09-05T11:51:32.069Z,56.16
2023-09-05T11:52:32.001Z,55.96
2023-09-05T11:53:31.992Z,56.16
2023-09-05T11:54:31.996Z,55.47
2023-09-05T11:55:31.960Z,55.57
2023-09-05T11:56:31.947Z,56.46
2023-09-05T11:57:31.939Z,58.25
2023-09-05T11:58:31.951Z,58.32
2023-09-05T11:59:31.911Z,56.93
2023-09-05T12:00:31.887Z,56.73
2023-09-05T12:01:31.918Z,56.13
2023-09-05T12:02:31.875Z,55.44
2023-09-05T12:03:31.928Z,53.56
2023-09-05T12:04:31.877Z,54.55
2023-09-05T12:05:31.827Z,55.51
2023-09-05T12:06:31.819Z,55.34
2023-09-05T12:07:31.813Z,54.45
2023-09-05T12:08:36.912Z,54.94
2023-09-05T12:09:32.771Z,55.54
2023-09-05T12:10:31.759Z,54.64
2023-09-05T12:11:31.758Z,54.42
2023-09-05T12:12:31.745Z,55.21
2023-09-05T12:13:31.731Z,55.21
2023-09-05T12:14:31.713Z,55.21
2023-09-05T12:15:31.765Z,56.21
2023-09-05T12:16:31.685Z,55.71
2023-09-05T12:17:31.694Z,54.52
2023-09-05T12:18:31.786Z,55.21
2023-09-05T12:19:31.658Z,54.13
2023-09-05T12:20:31.629Z,55.02
2023-09-05T12:21:34.389Z,55.58
2023-09-05T12:22:31.621Z,54.99
2023-09-05T12:23:31.613Z,55.19
2023-09-05T12:24:31.580Z,55.49
2023-09-05T12:25:42.775Z,54.99
2023-09-05T12:26:32.604Z,54.60
2023-09-05T12:27:31.558Z,55.49
2023-09-05T12:28:31.533Z,54.49
2023-09-05T12:29:31.505Z,54.20
2023-09-05T12:30:31.505Z,55.19
2023-09-05T12:31:31.545Z,54.49
2023-09-05T12:32:31.490Z,55.78
2023-09-05T12:33:31.463Z,55.39
2023-09-05T12:34:31.451Z,54.89
2023-09-05T12:35:31.426Z,54.00
2023-09-05T12:36:31.451Z,53.58
2023-09-05T12:37:31.412Z,54.27
2023-09-05T12:38:31.455Z,54.67
2023-09-05T12:39:31.377Z,53.97
2023-09-05T12:40:31.368Z,53.28
2023-09-05T12:41:31.380Z,52.59
2023-09-05T12:42:31.349Z,52.59
2023-09-05T12:43:31.357Z,52.19
2023-09-05T12:44:31.324Z,51.60
2023-09-05T12:45:31.369Z,53.78
2023-09-05T12:46:31.353Z,52.88
2023-09-05T12:47:31.704Z,52.59
2023-09-05T12:48:31.269Z,52.49
2023-09-05T12:49:31.245Z,53.58
2023-09-05T12:50:31.928Z,54.17
2023-09-05T12:51:31.245Z,53.18
2023-09-05T12:52:31.217Z,52.86
2023-09-05T12:53:31.207Z,53.55